臺北終端管制區 - 松西席

METAR RCSS 271130Z 10010G20KT 9999 VCSH FEW010 SCT030 BKN060 22/18 Q1023 NOSIG RMK A3021(H)=

站台狀態:Offline
最後更新:2020-11-27 19:30:02